createdAt,value
2024-04-15T00:00:49.254Z,100237.04
2024-04-15T00:05:50.856Z,100240.66
2024-04-15T00:10:52.464Z,100233.89
2024-04-15T00:15:55.991Z,100234.62
2024-04-15T00:20:58.895Z,100235.58
2024-04-15T00:26:00.351Z,100227.28
2024-04-15T00:31:02.049Z,100219.56
2024-04-15T00:36:03.757Z,100211.11
2024-04-15T00:41:05.451Z,100213.81
2024-04-15T00:46:06.998Z,100210.14
2024-04-15T00:51:08.893Z,100198.84
2024-04-15T00:56:11.597Z,100195.65
2024-04-15T01:01:15.130Z,100188.23
2024-04-15T01:06:16.685Z,100180.27
2024-04-15T01:11:18.167Z,100170.98
2024-04-15T01:16:19.738Z,100163.98
2024-04-15T01:21:21.318Z,100158.30
2024-04-15T01:26:22.793Z,100147.83
2024-04-15T01:31:24.609Z,100138.27
2024-04-15T01:36:26.431Z,100137.63
2024-04-15T01:41:27.871Z,100140.17
2024-04-15T01:46:29.290Z,100138.67
2024-04-15T01:51:31.498Z,100137.71
2024-04-15T01:56:33.038Z,100130.59
2024-04-15T02:01:37.746Z,100128.13
2024-04-15T02:06:39.226Z,100121.77
2024-04-15T02:11:40.606Z,100108.14
2024-04-15T02:16:42.025Z,100099.15
2024-04-15T02:21:43.488Z,100086.50
2024-04-15T02:26:44.879Z,100088.60
2024-04-15T02:31:47.069Z,100092.23
2024-04-15T02:36:48.681Z,100081.67
2024-04-15T02:41:50.560Z,100081.45
2024-04-15T02:46:51.946Z,100084.65
2024-04-15T02:51:53.821Z,100094.06
2024-04-15T02:56:55.775Z,100104.80
2024-04-15T03:01:57.177Z,100109.34
2024-04-15T03:06:58.670Z,100122.76
2024-04-15T03:12:00.128Z,100115.85
2024-04-15T03:17:02.996Z,100105.34
2024-04-15T03:22:04.615Z,100084.86
2024-04-15T03:27:06.702Z,100067.27
2024-04-15T03:32:08.225Z,100069.82
2024-04-15T03:37:09.910Z,100076.44
2024-04-15T03:42:11.464Z,100068.73
2024-04-15T03:47:13.098Z,100073.18
2024-04-15T03:52:14.641Z,100076.13
2024-04-15T03:57:16.069Z,100073.86
2024-04-15T04:02:17.538Z,100070.31
2024-04-15T04:07:19.990Z,100054.73
2024-04-15T04:12:21.848Z,100035.55
2024-04-15T04:17:23.310Z,100042.48
2024-04-15T04:22:27.671Z,100047.82
2024-04-15T04:27:29.788Z,100057.14
2024-04-15T04:32:33.050Z,100057.15
2024-04-15T04:37:34.783Z,100048.55
2024-04-15T04:42:36.199Z,100040.83
2024-04-15T04:47:37.636Z,100020.84
2024-04-15T04:52:39.063Z,100008.83
2024-04-15T04:57:40.505Z,99994.98
2024-04-15T05:02:42.155Z,100000.14
2024-04-15T05:07:43.605Z,100008.64
2024-04-15T05:12:45.101Z,100006.86
2024-04-15T05:17:46.807Z,100017.27
2024-04-15T05:22:48.415Z,100017.35
2024-04-15T05:27:49.813Z,100022.23
2024-04-15T05:32:51.309Z,100035.56
2024-04-15T05:37:53.073Z,100037.99
2024-04-15T05:42:54.563Z,100031.61
2024-04-15T05:47:56.678Z,100024.13
2024-04-15T05:52:58.690Z,100012.57
2024-04-15T05:58:00.124Z,99997.86
2024-04-15T06:03:01.565Z,100003.35
2024-04-15T06:08:03.083Z,99993.42
2024-04-15T06:13:04.696Z,99996.45
2024-04-15T06:18:06.664Z,100000.80
2024-04-15T06:23:08.510Z,100010.27
2024-04-15T06:28:10.080Z,100014.90
2024-04-15T06:33:12.155Z,100022.33
2024-04-15T06:38:14.506Z,100031.79
2024-04-15T06:43:16.231Z,100038.95
2024-04-15T06:48:17.798Z,100052.43
2024-04-15T06:53:19.667Z,100070.21
2024-04-15T06:58:21.568Z,100055.48
2024-04-15T07:03:23.225Z,100047.23
2024-04-15T07:08:26.152Z,100032.63
2024-04-15T07:13:27.765Z,100026.05
2024-04-15T07:18:29.242Z,100032.48
2024-04-15T07:23:31.164Z,100037.14
2024-04-15T07:28:32.596Z,100024.00
2024-04-15T07:33:34.298Z,100028.73
2024-04-15T07:38:35.853Z,100020.33
2024-04-15T07:43:37.644Z,100031.30
2024-04-15T07:48:39.318Z,100021.27
2024-04-15T07:53:41.723Z,100009.91
2024-04-15T07:58:43.125Z,100000.92
2024-04-15T08:03:44.606Z,99998.77
2024-04-15T08:08:46.472Z,99997.11
2024-04-15T08:13:48.004Z,100005.41
2024-04-15T08:18:49.987Z,100000.77
2024-04-15T08:23:51.857Z,99985.42
2024-04-15T08:28:53.320Z,99966.49
2024-04-15T08:33:55.676Z,99987.48
2024-04-15T08:38:57.239Z,99976.64
2024-04-15T08:44:05.422Z,99978.81
2024-04-15T08:49:08.393Z,99973.41
2024-04-15T08:54:10.129Z,99961.36
2024-04-15T08:59:18.089Z,99956.59
2024-04-15T09:04:20.996Z,99977.58
2024-04-15T09:09:22.538Z,99973.23
2024-04-15T09:14:24.868Z,99977.67
2024-04-15T09:19:28.057Z,99979.52
2024-04-15T09:24:29.524Z,99975.64
2024-04-15T09:29:30.949Z,99969.23
2024-04-15T09:34:32.942Z,99965.36
2024-04-15T09:39:35.604Z,99953.29
2024-04-15T09:44:42.949Z,99943.26
2024-04-15T09:49:47.762Z,99936.04
2024-04-15T09:54:57.107Z,99932.20
2024-04-15T10:00:02.919Z,99918.88
2024-04-15T10:05:22.092Z,99898.39
2024-04-15T10:10:25.391Z,99907.66
2024-04-15T10:15:27.984Z,99902.62
2024-04-15T10:20:36.731Z,99904.77
2024-04-15T10:25:39.400Z,99896.11
2024-04-15T10:30:42.090Z,99888.70
2024-04-15T10:35:45.794Z,99887.23
2024-04-15T10:40:49.794Z,99878.85
2024-04-15T10:45:52.216Z,99862.41
2024-04-15T10:50:53.740Z,99849.81
2024-04-15T10:55:55.237Z,99848.19
2024-04-15T11:00:57.121Z,99845.31
2024-04-15T11:05:58.653Z,99845.63
2024-04-15T11:11:00.227Z,99825.45
2024-04-15T11:16:02.664Z,99814.95
2024-04-15T11:21:04.826Z,99812.11
2024-04-15T11:26:08.132Z,99806.86
2024-04-15T11:31:10.882Z,99794.21
2024-04-15T11:36:17.306Z,99788.61
2024-04-15T11:41:19.525Z,99786.33
2024-04-15T11:46:21.057Z,99779.59
2024-04-15T11:51:23.015Z,99766.92
2024-04-15T11:56:24.706Z,99773.27
2024-04-15T12:01:28.356Z,99764.86
2024-04-15T12:06:30.161Z,99753.99
2024-04-15T12:11:31.653Z,99754.52
2024-04-15T12:16:34.350Z,99761.88
2024-04-15T12:21:36.169Z,99741.50
2024-04-15T12:26:38.110Z,99734.72
2024-04-15T12:31:39.505Z,99728.45
2024-04-15T12:36:41.096Z,99721.65
2024-04-15T12:41:44.674Z,99709.06
2024-04-15T12:46:46.114Z,99702.56
2024-04-15T12:51:47.505Z,99700.77
2024-04-15T12:56:49.476Z,99689.86
2024-04-15T13:02:01.955Z,99676.80
2024-04-15T13:07:09.872Z,99671.53
2024-04-15T13:12:14.355Z,99668.41
2024-04-15T13:17:15.799Z,99662.19
2024-04-15T13:22:17.409Z,99648.27
2024-04-15T13:27:19.981Z,99646.55
2024-04-15T13:32:21.899Z,99652.46
2024-04-15T13:37:25.398Z,99646.57
2024-04-15T13:42:27.272Z,99650.86
2024-04-15T13:47:28.717Z,99642.65
2024-04-15T13:52:30.166Z,99640.78
2024-04-15T13:57:31.812Z,99638.69
2024-04-15T14:02:33.551Z,99630.95
2024-04-15T14:07:35.050Z,99621.14
2024-04-15T14:12:36.515Z,99617.00
2024-04-15T14:17:38.836Z,99618.20
2024-04-15T14:22:40.283Z,99615.52
2024-04-15T14:27:42.017Z,99602.40
2024-04-15T14:32:44.531Z,99605.70
2024-04-15T14:37:46.254Z,99607.17
2024-04-15T14:42:47.974Z,99607.15
2024-04-15T14:47:50.304Z,99607.33
2024-04-15T14:52:52.041Z,99599.41
2024-04-15T14:57:53.544Z,99592.55
2024-04-15T15:02:55.030Z,99584.92
2024-04-15T15:07:56.513Z,99583.98
2024-04-15T15:12:58.462Z,99581.85
2024-04-15T15:18:00.249Z,99575.95
2024-04-15T15:23:01.869Z,99571.70
2024-04-15T15:28:03.692Z,99560.27
2024-04-15T15:33:05.499Z,99549.75
2024-04-15T15:38:09.292Z,99546.77
2024-04-15T15:43:10.822Z,99534.98
2024-04-15T15:48:12.372Z,99533.91
2024-04-15T15:53:14.233Z,99535.68
2024-04-15T15:58:16.020Z,99526.91
2024-04-15T16:03:21.489Z,99516.08
2024-04-15T16:08:23.313Z,99502.11
2024-04-15T16:13:24.821Z,99480.98
2024-04-15T16:18:26.417Z,99454.45
2024-04-15T16:23:28.076Z,99443.58
2024-04-15T16:28:29.740Z,99434.66
2024-04-15T16:33:33.214Z,99438.23
2024-04-15T16:38:35.709Z,99428.86
2024-04-15T16:43:37.175Z,99421.08
2024-04-15T16:48:38.627Z,99424.58
2024-04-15T16:53:40.271Z,99425.45
2024-04-15T16:58:41.988Z,99408.39
2024-04-15T17:03:43.471Z,99396.58
2024-04-15T17:08:45.003Z,99392.13
2024-04-15T17:13:46.907Z,99388.16
2024-04-15T17:18:49.644Z,99389.62
2024-04-15T17:23:52.340Z,99383.42
2024-04-15T17:28:53.842Z,99372.96
2024-04-15T17:33:55.318Z,99368.77
2024-04-15T17:38:57.540Z,99369.11
2024-04-15T17:43:58.969Z,99370.52
2024-04-15T17:49:01.242Z,99361.74
2024-04-15T17:54:03.348Z,99357.33
2024-04-15T17:59:05.155Z,99356.86
2024-04-15T18:04:06.941Z,99354.73
2024-04-15T18:09:08.513Z,99352.84
2024-04-15T18:14:10.811Z,99357.53
2024-04-15T18:19:12.884Z,99342.91
2024-04-15T18:24:14.924Z,99347.97
2024-04-15T18:29:16.411Z,99361.20
2024-04-15T18:34:17.971Z,99358.17
2024-04-15T18:39:22.752Z,99346.94
2024-04-15T18:44:24.303Z,99329.30
2024-04-15T18:49:26.161Z,99310.97
2024-04-15T18:54:27.793Z,99300.02
2024-04-15T18:59:29.209Z,99293.74
2024-04-15T19:04:30.728Z,99290.63
2024-04-15T19:09:32.296Z,99289.59
2024-04-15T19:14:45.804Z,99278.48
2024-04-15T19:19:55.371Z,99262.48
2024-04-15T19:24:56.972Z,99255.73
2024-04-15T19:29:58.532Z,99248.38
2024-04-15T19:35:00.409Z,99240.81
2024-04-15T19:40:01.974Z,99236.38
2024-04-15T19:45:05.614Z,99239.92
2024-04-15T19:50:08.761Z,99239.58
2024-04-15T19:55:10.305Z,99225.33
2024-04-15T20:00:13.126Z,99211.42
2024-04-15T20:05:15.256Z,99205.77
2024-04-15T20:10:16.954Z,99194.39
2024-04-15T20:15:18.516Z,99188.63
2024-04-15T20:20:29.308Z,99180.14
2024-04-15T20:25:31.338Z,99172.89
2024-04-15T20:30:37.678Z,99169.20
2024-04-15T20:35:39.211Z,99163.65
2024-04-15T20:40:41.750Z,99146.30
2024-04-15T20:45:49.826Z,99130.21
2024-04-15T20:50:51.285Z,99118.48
2024-04-15T20:55:53.009Z,99115.94
2024-04-15T21:00:57.115Z,99089.39
2024-04-15T21:05:59.338Z,99083.61
2024-04-15T21:11:01.221Z,99088.90
2024-04-15T21:16:03.045Z,99089.17
2024-04-15T21:21:04.922Z,99086.32
2024-04-15T21:26:08.505Z,99082.56
2024-04-15T21:31:10.176Z,99061.71
2024-04-15T21:36:11.839Z,99027.05
2024-04-15T21:41:13.334Z,99032.11
2024-04-15T21:46:14.894Z,99023.69
2024-04-15T21:51:16.340Z,99005.29
2024-04-15T21:56:18.225Z,99007.20
2024-04-15T22:01:19.730Z,99001.40
2024-04-15T22:06:21.235Z,98985.14
2024-04-15T22:11:22.758Z,98992.98
2024-04-15T22:16:25.258Z,98994.98
2024-04-15T22:21:27.095Z,98995.60
2024-04-15T22:26:29.166Z,98990.55
2024-04-15T22:31:30.656Z,98966.45
2024-04-15T22:36:32.223Z,98963.81
2024-04-15T22:41:33.734Z,98952.09
2024-04-15T22:46:35.274Z,98938.35
2024-04-15T22:51:36.828Z,98930.62
2024-04-15T22:56:38.375Z,98909.79
2024-04-15T23:01:40.001Z,98894.48
2024-04-15T23:06:42.045Z,98874.14
2024-04-15T23:11:43.516Z,98879.73
2024-04-15T23:16:45.148Z,98885.55
2024-04-15T23:21:46.708Z,98884.02
2024-04-15T23:26:48.149Z,98869.71
2024-04-15T23:31:49.616Z,98866.48
2024-04-15T23:36:51.066Z,98854.45
2024-04-15T23:41:52.626Z,98836.48
2024-04-15T23:46:54.250Z,98814.09
2024-04-15T23:51:55.830Z,98772.59
2024-04-15T23:56:57.310Z,98748.82
